Time;durP1;ratioP1;P1;durP2;ratioP2;P2;SDS_P1;SDS_P2;PMS_P1;PMS_P2;Temp;Humidity;BMP_temperature;BMP_pressure;BME280_temperature;BME280_humidity;BME280_pressure;Samples;Min_cycle;Max_cycle;Signal;HPM_P1;HPM_P2
2022/07/10 00:01:24;;;;;;;2.53;0.63;;;22.40;60.00;;;;;;5031793;28;20052;-61
2022/07/10 00:03:50;;;;;;;3.95;0.60;;;22.40;60.00;;;;;;5030906;28;20140;-61
2022/07/10 00:06:16;;;;;;;2.53;0.30;;;22.40;60.00;;;;;;5034517;28;20049;-61
2022/07/10 00:08:42;;;;;;;2.08;0.57;;;22.40;60.00;;;;;;5035023;28;20053;-61
2022/07/10 00:11:08;;;;;;;3.72;0.52;;;22.40;60.00;;;;;;5034503;28;20047;-61
2022/07/10 00:13:34;;;;;;;3.65;0.52;;;22.40;60.00;;;;;;5035656;28;20080;-61
2022/07/10 00:16:01;;;;;;;1.75;0.30;;;22.40;60.00;;;;;;5034875;28;20046;-61
2022/07/10 00:18:28;;;;;;;1.33;0.30;;;22.40;60.00;;;;;;5035144;28;20049;-61
2022/07/10 00:20:53;;;;;;;1.85;0.43;;;22.40;60.00;;;;;;5034643;28;20493;-61
2022/07/10 00:23:19;;;;;;;1.48;0.43;;;22.40;60.00;;;;;;5034278;28;20042;-61
2022/07/10 00:25:44;;;;;;;2.78;0.43;;;22.30;60.00;;;;;;5034807;28;20120;-61
2022/07/10 00:28:11;;;;;;;2.05;0.40;;;22.30;60.00;;;;;;5034968;28;20056;-61
2022/07/10 00:30:37;;;;;;;2.63;0.40;;;22.30;60.00;;;;;;5034559;28;20049;-61
2022/07/10 00:33:03;;;;;;;1.88;0.35;;;22.30;60.10;;;;;;5034649;28;20041;-61
2022/07/10 00:35:28;;;;;;;3.88;0.57;;;22.30;60.10;;;;;;5035174;28;20113;-61
2022/07/10 00:37:54;;;;;;;2.50;0.50;;;22.30;60.10;;;;;;5033848;28;20450;-61
2022/07/10 00:40:20;;;;;;;1.77;0.50;;;22.30;60.10;;;;;;5033574;28;20045;-61
2022/07/10 00:42:45;;;;;;;2.67;0.40;;;22.30;60.10;;;;;;5034397;28;20045;-61
2022/07/10 00:45:11;;;;;;;2.55;0.57;;;22.30;60.10;;;;;;5032821;28;20033;-61
2022/07/10 00:47:37;;;;;;;2.67;0.40;;;22.30;60.20;;;;;;5033341;28;20045;-61
2022/07/10 00:50:03;;;;;;;1.92;0.40;;;22.30;60.20;;;;;;5034618;28;20041;-61
2022/07/10 00:52:29;;;;;;;1.15;0.30;;;22.20;60.20;;;;;;5034256;28;20099;-61
2022/07/10 00:54:54;;;;;;;2.67;0.52;;;22.30;60.20;;;;;;5032993;28;20038;-62
2022/07/10 00:57:20;;;;;;;1.90;0.40;;;22.30;60.20;;;;;;5033677;28;20045;-61
2022/07/10 00:59:46;;;;;;;1.52;0.38;;;22.30;60.30;;;;;;5032110;28;20046;-61
2022/07/10 01:02:11;;;;;;;2.17;0.50;;;22.20;60.20;;;;;;5034680;28;20075;-61
2022/07/10 01:04:37;;;;;;;1.48;0.45;;;22.20;60.20;;;;;;5032995;28;20045;-61
2022/07/10 01:07:03;;;;;;;2.25;0.60;;;22.20;60.20;;;;;;5033283;28;20052;-61
2022/07/10 01:09:31;;;;;;;1.30;0.40;;;22.20;60.20;;;;;;5034589;28;20119;-61
2022/07/10 01:11:57;;;;;;;1.70;0.40;;;22.20;60.20;;;;;;5032668;28;20052;-62
2022/07/10 01:14:22;;;;;;;1.55;0.50;;;22.20;60.20;;;;;;5032321;28;20053;-61
2022/07/10 01:16:48;;;;;;;2.47;0.60;;;22.20;60.30;;;;;;5031878;28;20099;-61
2022/07/10 01:19:13;;;;;;;2.83;0.40;;;22.20;60.30;;;;;;5032971;28;20073;-61
2022/07/10 01:21:39;;;;;;;2.05;0.60;;;22.20;60.30;;;;;;5033300;28;20119;-61
2022/07/10 01:24:08;;;;;;;1.02;0.40;;;22.20;60.30;;;;;;5033708;28;20482;-61
2022/07/10 01:26:34;;;;;;;3.30;0.60;;;22.20;60.30;;;;;;5033153;28;20049;-62
2022/07/10 01:29:05;;;;;;;1.45;0.40;;;22.20;60.30;;;;;;5033898;28;20054;-61
2022/07/10 01:31:31;;;;;;;2.35;0.50;;;22.20;60.30;;;;;;5034120;28;20045;-61
2022/07/10 01:33:56;;;;;;;0.65;0.30;;;22.20;60.40;;;;;;5031184;28;20543;-61
2022/07/10 01:36:22;;;;;;;2.95;0.52;;;22.20;60.40;;;;;;5032589;28;20068;-62
2022/07/10 01:38:48;;;;;;;2.25;0.38;;;22.20;60.40;;;;;;5033409;28;20045;-61
2022/07/10 01:41:13;;;;;;;1.90;0.43;;;22.20;60.40;;;;;;5033215;28;20076;-62
2022/07/10 01:43:42;;;;;;;1.23;0.32;;;22.20;60.40;;;;;;5033493;28;20037;-62
2022/07/10 01:46:07;;;;;;;2.40;0.50;;;22.20;60.40;;;;;;5033694;28;20041;-63
2022/07/10 01:48:33;;;;;;;2.13;0.50;;;22.10;60.40;;;;;;5032963;28;20499;-62
2022/07/10 01:50:58;;;;;;;1.77;0.30;;;22.20;60.40;;;;;;5033164;28;20156;-62
2022/07/10 01:53:24;;;;;;;0.40;0.20;;;22.10;60.40;;;;;;5033599;28;20038;-61
2022/07/10 01:55:50;;;;;;;1.42;0.50;;;22.10;60.40;;;;;;5032541;28;20052;-61
2022/07/10 01:58:15;;;;;;;1.38;0.50;;;22.10;60.40;;;;;;5033400;28;20064;-59
2022/07/10 02:00:41;;;;;;;1.88;0.30;;;22.10;60.40;;;;;;5033053;28;20045;-60
2022/07/10 02:05:51;;;;;;;2.38;0.50;;;22.10;60.50;;;;;;5032521;28;20046;-60
2022/07/10 02:08:16;;;;;;;1.55;0.20;;;22.10;60.50;;;;;;5032204;28;20075;-61
2022/07/10 02:10:42;;;;;;;2.50;0.38;;;22.10;60.50;;;;;;5032216;28;20146;-61
2022/07/10 02:13:07;;;;;;;2.22;0.40;;;22.10;60.50;;;;;;5031966;28;20140;-60
2022/07/10 02:15:33;;;;;;;2.00;0.50;;;22.10;60.50;;;;;;5033145;28;20150;-61
2022/07/10 02:17:58;;;;;;;2.03;0.40;;;22.10;60.50;;;;;;5031829;28;20099;-61
2022/07/10 02:20:24;;;;;;;1.20;0.30;;;22.10;60.50;;;;;;5031537;28;20067;-62
2022/07/10 02:22:49;;;;;;;2.00;0.50;;;22.10;60.50;;;;;;5031959;28;20128;-62
2022/07/10 02:25:15;;;;;;;1.33;0.40;;;22.10;60.50;;;;;;5032616;28;20497;-61
2022/07/10 02:27:41;;;;;;;1.77;0.40;;;22.10;60.50;;;;;;5032481;28;20092;-62
2022/07/10 02:30:07;;;;;;;1.23;0.30;;;22.10;60.60;;;;;;5032064;28;20091;-61
2022/07/10 02:32:32;;;;;;;1.75;0.43;;;22.00;60.50;;;;;;5032992;28;20037;-61
2022/07/10 02:34:58;;;;;;;1.88;0.40;;;22.10;60.60;;;;;;5032174;28;20045;-62
2022/07/10 02:37:23;;;;;;;2.90;0.63;;;22.10;60.60;;;;;;5032143;28;20037;-61
2022/07/10 02:39:49;;;;;;;2.95;0.50;;;22.00;60.60;;;;;;5032679;28;20108;-62
2022/07/10 02:42:14;;;;;;;1.08;0.40;;;22.00;60.60;;;;;;5032565;28;20042;-62
2022/07/10 02:44:40;;;;;;;1.67;0.40;;;22.00;60.60;;;;;;5031939;28;20044;-62
2022/07/10 02:47:05;;;;;;;1.70;0.45;;;22.00;60.60;;;;;;5032627;28;20045;-62
2022/07/10 02:49:31;;;;;;;1.48;0.30;;;22.00;60.60;;;;;;5032396;28;20034;-61
2022/07/10 02:51:58;;;;;;;1.55;0.50;;;22.00;60.60;;;;;;5031465;28;20444;-61
2022/07/10 02:54:23;;;;;;;1.13;0.38;;;22.00;60.60;;;;;;5032900;28;20103;-61
2022/07/10 02:56:49;;;;;;;1.40;0.30;;;22.00;60.70;;;;;;5031031;28;20045;-61
2022/07/10 02:59:14;;;;;;;2.28;0.40;;;22.00;60.70;;;;;;5030716;28;20052;-61
2022/07/10 03:01:40;;;;;;;1.75;0.50;;;22.00;60.70;;;;;;5030940;28;20052;-61
2022/07/10 03:04:07;;;;;;;0.82;0.32;;;22.00;60.70;;;;;;5032450;28;20474;-62
2022/07/10 03:06:32;;;;;;;2.42;0.50;;;22.00;60.70;;;;;;5031852;28;20091;-62
2022/07/10 03:08:58;;;;;;;1.17;0.30;;;22.00;60.70;;;;;;5031991;28;20076;-62
2022/07/10 03:11:24;;;;;;;1.65;0.40;;;22.00;60.70;;;;;;5032545;28;20095;-62
2022/07/10 03:13:49;;;;;;;1.55;0.45;;;22.00;60.70;;;;;;5031253;28;20080;-62
2022/07/10 03:16:15;;;;;;;2.35;0.40;;;22.00;60.70;;;;;;5032503;28;20087;-62
2022/07/10 03:18:40;;;;;;;2.00;0.47;;;22.00;60.70;;;;;;5032209;28;20053;-61
2022/07/10 03:21:06;;;;;;;2.00;0.40;;;22.00;60.70;;;;;;5030282;28;20049;-62
2022/07/10 03:23:32;;;;;;;2.70;0.50;;;22.00;60.70;;;;;;5031165;28;20106;-61
2022/07/10 03:25:57;;;;;;;2.10;0.30;;;22.00;60.80;;;;;;5031240;28;20068;-62
2022/07/10 03:28:23;;;;;;;2.35;0.40;;;22.00;60.70;;;;;;5032011;28;20053;-62
2022/07/10 03:30:48;;;;;;;2.20;0.40;;;22.00;60.80;;;;;;5032113;28;20045;-61
2022/07/10 03:33:14;;;;;;;1.52;0.52;;;21.90;60.70;;;;;;5031358;28;20041;-61
2022/07/10 03:35:39;;;;;;;1.63;0.40;;;21.90;60.70;;;;;;5032249;28;20088;-61
2022/07/10 03:38:05;;;;;;;2.45;0.50;;;21.90;60.70;;;;;;5031884;28;20041;-61
2022/07/10 03:40:31;;;;;;;1.58;0.60;;;21.90;60.80;;;;;;5032862;28;20493;-61
2022/07/10 03:42:57;;;;;;;1.95;0.50;;;21.90;60.80;;;;;;5035465;28;20048;-61
2022/07/10 03:45:23;;;;;;;1.92;0.40;;;21.90;60.80;;;;;;5036046;28;20537;-61
2022/07/10 03:47:48;;;;;;;1.67;0.40;;;21.90;60.80;;;;;;5033516;28;20049;-61
2022/07/10 03:50:14;;;;;;;1.80;0.50;;;21.90;60.80;;;;;;5036103;28;20125;-61
2022/07/10 03:52:39;;;;;;;0.55;0.25;;;21.90;60.80;;;;;;5036069;28;20042;-61
2022/07/10 03:55:05;;;;;;;2.38;0.40;;;21.90;60.80;;;;;;5035167;28;20428;-61
2022/07/10 04:00:15;;;;;;;2.60;0.40;;;21.90;60.80;;;;;;5035606;28;20049;-61
2022/07/10 04:02:40;;;;;;;2.00;0.38;;;21.90;60.90;;;;;;5033944;28;20045;-61
2022/07/10 04:05:07;;;;;;;2.55;0.47;;;21.80;60.80;;;;;;5035005;28;20096;-61
2022/07/10 04:07:33;;;;;;;4.10;0.50;;;21.80;60.80;;;;;;5034116;28;20054;-61
2022/07/10 04:09:59;;;;;;;1.70;0.40;;;21.90;60.90;;;;;;5034451;28;20049;-61
2022/07/10 04:12:25;;;;;;;1.75;0.50;;;21.80;60.80;;;;;;5035595;28;20508;-61
2022/07/10 04:14:51;;;;;;;3.20;0.60;;;21.80;60.80;;;;;;5033782;28;20041;-61
2022/07/10 04:17:17;;;;;;;2.67;0.43;;;21.80;60.80;;;;;;5034979;28;20055;-61
2022/07/10 04:19:43;;;;;;;2.75;0.47;;;21.90;60.90;;;;;;5035149;28;20045;-61
2022/07/10 04:22:08;;;;;;;1.48;0.32;;;21.90;60.90;;;;;;5034071;28;20045;-61
2022/07/10 04:24:35;;;;;;;2.58;0.35;;;21.80;60.80;;;;;;5034489;28;20489;-61
2022/07/10 04:27:00;;;;;;;1.02;0.30;;;21.90;60.90;;;;;;5034787;28;20132;-61
2022/07/10 04:29:26;;;;;;;0.90;0.40;;;21.90;60.90;;;;;;5034435;28;20148;-61
2022/07/10 04:31:51;;;;;;;0.43;0.22;;;21.90;61.00;;;;;;5034974;28;20044;-61
2022/07/10 04:34:17;;;;;;;1.40;0.50;;;21.90;61.00;;;;;;5033852;28;20095;-61
2022/07/10 04:36:42;;;;;;;2.05;0.30;;;21.90;60.90;;;;;;5034314;28;20049;-61
2022/07/10 04:39:08;;;;;;;3.75;0.45;;;21.90;60.90;;;;;;5034963;28;20041;-61
2022/07/10 04:41:33;;;;;;;1.50;0.30;;;21.90;60.90;;;;;;5034741;28;20064;-61
2022/07/10 04:43:59;;;;;;;1.42;0.70;;;21.90;60.90;;;;;;5034038;28;20433;-61
2022/07/10 04:46:25;;;;;;;2.53;0.47;;;21.90;60.90;;;;;;5035018;28;20049;-61
2022/07/10 04:48:51;;;;;;;2.17;0.38;;;21.80;60.80;;;;;;5034456;28;20045;-61
2022/07/10 04:51:17;;;;;;;1.88;0.50;;;21.80;60.80;;;;;;5033289;28;20068;-61
2022/07/10 04:53:42;;;;;;;2.15;0.35;;;21.80;60.80;;;;;;5034099;28;20107;-61
2022/07/10 04:56:08;;;;;;;2.13;0.40;;;21.80;60.80;;;;;;5034918;28;20045;-61
2022/07/10 04:58:33;;;;;;;1.83;0.43;;;21.80;60.80;;;;;;5033273;28;20446;-61
2022/07/10 05:00:59;;;;;;;2.53;0.68;;;21.80;60.80;;;;;;5034211;28;20041;-61
2022/07/10 05:03:24;;;;;;;2.65;0.47;;;21.80;60.80;;;;;;5034684;28;20171;-61
2022/07/10 05:05:50;;;;;;;3.90;0.40;;;21.80;60.80;;;;;;5033731;28;20065;-61
2022/07/10 05:08:15;;;;;;;1.73;0.60;;;21.80;60.80;;;;;;5034764;28;20046;-61
2022/07/10 05:10:41;;;;;;;2.22;0.40;;;21.80;60.80;;;;;;5034320;28;20061;-61
2022/07/10 05:13:06;;;;;;;2.60;0.40;;;21.80;60.80;;;;;;5033291;28;20046;-61
2022/07/10 05:15:32;;;;;;;1.52;0.30;;;21.80;60.80;;;;;;5034197;28;20076;-61
2022/07/10 05:17:58;;;;;;;1.73;0.50;;;21.80;60.80;;;;;;5034151;28;20117;-61
2022/07/10 05:20:23;;;;;;;1.70;0.35;;;21.80;60.80;;;;;;5033781;28;20053;-61
2022/07/10 05:22:49;;;;;;;1.95;0.30;;;21.80;60.80;;;;;;5034033;28;20041;-61
2022/07/10 05:25:14;;;;;;;3.13;0.30;;;21.70;60.80;;;;;;5032542;28;20052;-62
2022/07/10 05:27:40;;;;;;;1.63;0.70;;;21.80;60.80;;;;;;5032774;28;20057;-61
2022/07/10 05:30:06;;;;;;;1.52;0.30;;;21.80;60.90;;;;;;5032469;28;20049;-61
2022/07/10 05:32:31;;;;;;;2.47;0.38;;;21.70;60.80;;;;;;5033735;28;20107;-61
2022/07/10 05:34:58;;;;;;;6.25;0.50;;;21.80;60.90;;;;;;5033484;28;20052;-62
2022/07/10 05:37:24;;;;;;;3.22;0.32;;;21.80;61.00;;;;;;5033907;28;20084;-61
2022/07/10 05:39:49;;;;;;;6.70;0.50;;;21.80;61.10;;;;;;5033021;28;20088;-61
2022/07/10 05:42:15;;;;;;;3.40;0.40;;;21.80;61.10;;;;;;5034030;28;20370;-61
2022/07/10 05:44:40;;;;;;;2.30;0.50;;;21.80;61.00;;;;;;5033312;28;20077;-61
2022/07/10 05:47:06;;;;;;;2.78;0.40;;;21.80;61.10;;;;;;5033201;28;20041;-62
2022/07/10 05:49:32;;;;;;;1.98;0.40;;;21.80;61.10;;;;;;5033296;28;20052;-61
2022/07/10 05:51:58;;;;;;;3.75;0.40;;;21.80;61.00;;;;;;5033425;28;20038;-62
2022/07/10 05:54:23;;;;;;;3.00;0.40;;;21.80;61.00;;;;;;5032648;28;20619;-61
2022/07/10 05:56:50;;;;;;;4.18;0.50;;;21.80;61.00;;;;;;5032954;28;20478;-61
2022/07/10 05:59:15;;;;;;;2.90;0.50;;;21.80;61.10;;;;;;5033592;28;20433;-61
2022/07/10 06:01:41;;;;;;;2.13;0.40;;;21.80;61.10;;;;;;5031975;28;20090;-62
2022/07/10 06:04:06;;;;;;;1.73;0.47;;;21.80;61.20;;;;;;5032742;28;20049;-61
2022/07/10 06:06:32;;;;;;;4.30;0.55;;;21.80;61.30;;;;;;5033370;28;20045;-62
2022/07/10 06:08:59;;;;;;;6.75;0.57;;;21.80;61.40;;;;;;5032174;28;20034;-63
2022/07/10 06:11:24;;;;;;;5.32;0.50;;;21.80;61.40;;;;;;5033259;28;20057;-62
2022/07/10 06:13:50;;;;;;;4.18;0.40;;;21.90;61.50;;;;;;5032440;28;20025;-62
2022/07/10 06:16:15;;;;;;;1.50;0.30;;;21.90;61.60;;;;;;5032238;28;20045;-62
2022/07/10 06:18:41;;;;;;;3.65;0.40;;;21.90;61.70;;;;;;5032498;28;20041;-62
2022/07/10 06:21:07;;;;;;;3.50;0.50;;;21.90;61.70;;;;;;5032823;28;20048;-61
2022/07/10 06:23:33;;;;;;;3.50;0.50;;;21.90;61.80;;;;;;5032245;28;20060;-60
2022/07/10 06:25:59;;;;;;;2.47;0.40;;;21.90;61.90;;;;;;5030678;28;20041;-62
2022/07/10 06:28:24;;;;;;;3.35;0.50;;;21.90;61.90;;;;;;5032212;28;20065;-62
2022/07/10 06:30:50;;;;;;;3.47;0.50;;;21.90;61.90;;;;;;5031267;28;20037;-63
2022/07/10 06:33:15;;;;;;;8.40;0.65;;;21.90;61.90;;;;;;5032626;28;20045;-63
2022/07/10 06:35:41;;;;;;;3.13;0.50;;;21.90;62.00;;;;;;5032622;28;20045;-63
2022/07/10 06:38:07;;;;;;;2.35;0.50;;;21.90;62.00;;;;;;5031954;28;20041;-63
2022/07/10 06:40:36;;;;;;;3.40;0.80;;;21.90;62.10;;;;;;5031184;28;20366;-63
2022/07/10 06:43:01;;;;;;;1.90;0.50;;;21.90;62.20;;;;;;5029810;28;20056;-63
2022/07/10 06:45:27;;;;;;;4.63;0.50;;;22.00;62.30;;;;;;5032699;28;20393;-63
2022/07/10 06:47:55;;;;;;;2.55;0.30;;;22.00;62.30;;;;;;5032473;28;20055;-62
2022/07/10 06:50:21;;;;;;;3.08;0.40;;;22.00;62.40;;;;;;5032108;28;20056;-62
2022/07/10 06:52:47;;;;;;;6.85;0.73;;;22.00;62.40;;;;;;5032413;28;20075;-62
2022/07/10 06:55:12;;;;;;;5.47;0.45;;;22.00;62.30;;;;;;5031039;28;20038;-63
2022/07/10 06:57:39;;;;;;;3.80;0.70;;;22.00;62.40;;;;;;5030648;28;20053;-63
2022/07/10 07:00:05;;;;;;;3.42;0.60;;;22.00;62.40;;;;;;5032525;28;20041;-62
2022/07/10 07:02:30;;;;;;;3.22;0.40;;;21.90;62.40;;;;;;5032655;28;20064;-61
2022/07/10 07:04:56;;;;;;;6.35;0.68;;;22.00;62.50;;;;;;5031646;28;20489;-62
2022/07/10 07:07:21;;;;;;;3.45;0.50;;;22.00;62.50;;;;;;5032562;28;20052;-62
2022/07/10 07:09:49;;;;;;;2.30;0.55;;;22.00;62.50;;;;;;5032345;28;20397;-62
2022/07/10 07:12:15;;;;;;;4.05;0.60;;;22.00;62.50;;;;;;5031146;28;20560;-61
2022/07/10 07:14:40;;;;;;;4.00;0.50;;;22.00;62.50;;;;;;5032074;28;20128;-61
2022/07/10 07:17:08;;;;;;;3.72;0.50;;;22.00;62.60;;;;;;5036700;28;20045;-61
2022/07/10 07:25:13;;;;;;;3.08;0.40;;;22.00;62.60;;;;;;5042425;28;20049;-62
2022/07/10 07:27:39;;;;;;;4.30;0.85;;;21.90;62.60;;;;;;5036295;28;20058;-61
2022/07/10 07:30:06;;;;;;;3.13;0.60;;;22.00;62.70;;;;;;5036272;28;20046;-61
2022/07/10 07:32:32;;;;;;;2.83;0.80;;;22.00;62.70;;;;;;5035685;28;20103;-61
2022/07/10 07:34:58;;;;;;;5.07;0.70;;;22.00;62.70;;;;;;5035679;28;20041;-61
2022/07/10 07:37:23;;;;;;;2.55;0.75;;;22.00;62.70;;;;;;5036503;28;20131;-61
2022/07/10 07:39:49;;;;;;;3.65;0.63;;;22.00;62.60;;;;;;5033881;28;20049;-61
2022/07/10 07:42:15;;;;;;;3.10;0.50;;;22.00;62.60;;;;;;5036124;28;20049;-61
2022/07/10 07:44:40;;;;;;;4.70;0.63;;;22.00;62.60;;;;;;5035821;28;20077;-61
2022/07/10 07:47:06;;;;;;;3.50;0.50;;;22.00;62.60;;;;;;5035249;28;20136;-61
2022/07/10 07:49:31;;;;;;;1.10;0.43;;;22.00;62.50;;;;;;5035790;28;20120;-61
2022/07/10 07:51:57;;;;;;;3.75;0.40;;;22.00;62.50;;;;;;5035628;28;20099;-61
2022/07/10 07:54:22;;;;;;;3.45;0.50;;;21.90;62.40;;;;;;5035239;28;20041;-62
2022/07/10 07:56:48;;;;;;;4.88;0.73;;;22.00;62.50;;;;;;5035756;28;20056;-62
2022/07/10 07:59:13;;;;;;;6.05;0.63;;;22.00;62.50;;;;;;5035697;28;20046;-61
2022/07/10 08:01:39;;;;;;;5.25;0.70;;;22.00;62.60;;;;;;5034921;28;20052;-60
2022/07/10 08:04:05;;;;;;;3.25;0.55;;;22.00;62.70;;;;;;5035445;28;20087;-61
2022/07/10 08:06:30;;;;;;;2.00;0.45;;;22.00;62.70;;;;;;5035879;28;20129;-60
2022/07/10 08:08:56;;;;;;;3.38;0.50;;;22.00;62.70;;;;;;5034812;28;20046;-61
2022/07/10 08:11:22;;;;;;;2.40;0.60;;;22.00;62.70;;;;;;5035747;28;20038;-60
2022/07/10 08:13:48;;;;;;;4.93;0.68;;;22.00;62.80;;;;;;5035072;28;20080;-61
2022/07/10 08:16:13;;;;;;;3.85;0.50;;;22.00;62.80;;;;;;5034618;28;20076;-61
2022/07/10 08:18:39;;;;;;;7.40;1.23;;;22.00;62.80;;;;;;5034370;28;20045;-61
2022/07/10 08:21:05;;;;;;;5.28;0.52;;;22.00;62.80;;;;;;5033219;28;20049;-62
2022/07/10 08:23:30;;;;;;;4.05;0.57;;;22.10;63.00;;;;;;5034302;28;20056;-61
2022/07/10 08:25:56;;;;;;;2.90;0.60;;;22.10;63.00;;;;;;5034222;28;20045;-62
2022/07/10 08:28:21;;;;;;;2.95;0.40;;;22.10;63.00;;;;;;5034110;28;20076;-61
2022/07/10 08:30:47;;;;;;;4.13;0.60;;;22.00;63.10;;;;;;5034389;28;20045;-62
2022/07/10 08:33:12;;;;;;;2.65;0.55;;;22.10;63.20;;;;;;5035011;28;20053;-62
2022/07/10 08:35:38;;;;;;;2.33;0.40;;;22.10;63.20;;;;;;5034475;28;20041;-62
2022/07/10 08:38:05;;;;;;;3.17;0.60;;;22.00;63.20;;;;;;5034793;28;20049;-60
2022/07/10 08:40:35;;;;;;;5.70;0.63;;;22.10;63.30;;;;;;5033720;28;20146;-60
2022/07/10 08:43:00;;;;;;;3.65;0.60;;;22.00;63.20;;;;;;5033813;28;20267;-61
2022/07/10 08:45:26;;;;;;;3.80;0.70;;;22.00;63.20;;;;;;5034897;28;20448;-61
2022/07/10 08:47:51;;;;;;;3.13;0.50;;;22.10;63.20;;;;;;5033256;28;20072;-61
2022/07/10 08:50:21;;;;;;;2.60;0.50;;;22.00;63.20;;;;;;5033102;28;20096;-62
2022/07/10 08:53:00;;;;;;;5.55;1.50;;;22.00;63.20;;;;;;5034621;28;20042;-63
2022/07/10 08:55:26;;;;;;;3.10;0.63;;;22.00;63.30;;;;;;5034721;28;20072;-63
2022/07/10 08:57:52;;;;;;;3.75;0.57;;;22.10;63.40;;;;;;5033559;28;20155;-62
2022/07/10 09:00:18;;;;;;;5.07;0.60;;;22.10;63.50;;;;;;5033534;28;20464;-63
2022/07/10 09:02:43;;;;;;;3.15;0.47;;;22.10;63.50;;;;;;5034140;28;20374;-63
2022/07/10 09:05:09;;;;;;;2.42;0.40;;;22.00;63.50;;;;;;5033946;28;20133;-63
2022/07/10 09:07:41;;;;;;;5.47;0.60;;;22.10;63.60;;;;;;5034461;28;20048;-62
2022/07/10 09:10:08;;;;;;;6.13;0.60;;;22.10;63.60;;;;;;5034728;28;20045;-64
2022/07/10 09:12:49;;;;;;;1.42;0.40;;;22.10;63.60;;;;;;5033543;28;20524;-62
2022/07/10 09:15:17;;;;;;;2.22;0.40;;;22.10;63.70;;;;;;5034481;28;20045;-62
2022/07/10 09:17:53;;;;;;;3.40;0.50;;;22.10;63.60;;;;;;5033360;28;20080;-63
2022/07/10 09:20:46;;;;;;;3.28;1.00;;;22.10;64.20;;;;;;5033065;28;20045;-62
2022/07/10 09:23:22;;;;;;;2.92;0.40;;;22.10;63.60;;;;;;5032936;28;20478;-62
2022/07/10 09:25:49;;;;;;;6.47;0.60;;;22.10;63.50;;;;;;5033460;28;20045;-62
2022/07/10 09:28:17;;;;;;;2.78;0.50;;;22.10;63.50;;;;;;5033481;28;20413;-61
2022/07/10 09:30:42;;;;;;;8.18;0.60;;;22.10;63.50;;;;;;5033607;28;20402;-63
2022/07/10 09:33:29;;;;;;;2.67;0.60;;;22.10;63.40;;;;;;5032965;28;20132;-63
2022/07/10 09:36:10;;;;;;;4.13;0.57;;;22.10;63.60;;;;;;5032536;28;20085;-63
2022/07/10 09:38:45;;;;;;;3.45;0.47;;;22.10;63.80;;;;;;5033305;28;20067;-63
2022/07/10 09:41:19;;;;;;;5.70;0.85;;;22.10;63.90;;;;;;5034119;28;20041;-64
2022/07/10 09:43:48;;;;;;;4.35;0.70;;;22.10;63.90;;;;;;5033318;28;20052;-63
2022/07/10 09:46:18;;;;;;;6.50;0.80;;;22.10;64.00;;;;;;5032760;28;20041;-61
2022/07/10 09:48:44;;;;;;;5.97;0.88;;;22.10;64.10;;;;;;5033738;28;20203;-63
2022/07/10 09:51:10;;;;;;;4.68;0.80;;;22.10;64.10;;;;;;5033527;28;20053;-63
2022/07/10 09:53:43;;;;;;;3.45;1.05;;;22.10;64.10;;;;;;5032823;28;20389;-63
2022/07/10 09:56:10;;;;;;;5.68;1.02;;;22.10;64.20;;;;;;5033112;28;20033;-61
2022/07/10 09:58:36;;;;;;;2.67;0.85;;;22.10;64.20;;;;;;5032961;28;20034;-62
2022/07/10 10:01:05;;;;;;;3.85;0.98;;;22.10;64.20;;;;;;5031693;28;20056;-62
2022/07/10 10:03:35;;;;;;;4.63;0.77;;;22.10;64.30;;;;;;5032954;28;20549;-62
2022/07/10 10:06:16;;;;;;;3.97;0.70;;;22.10;64.30;;;;;;5031919;28;20045;-62
2022/07/10 10:08:51;;;;;;;6.43;1.02;;;22.10;64.40;;;;;;5031241;28;20037;-62
2022/07/10 10:11:20;;;;;;;5.53;0.90;;;22.10;64.30;;;;;;5031944;28;20048;-62
2022/07/10 10:13:46;;;;;;;5.13;0.98;;;22.10;64.30;;;;;;5032731;28;20463;-61
2022/07/10 10:16:12;;;;;;;5.45;0.80;;;22.10;64.30;;;;;;5031174;28;20175;-61
2022/07/10 10:20:36;;;;;;;4.72;0.70;;;22.10;64.30;;;;;;5031733;28;20077;-62
2022/07/10 10:21:23;;;;;;;8.95;1.10;;;22.10;64.30;;;;;;5032461;28;20167;-62
2022/07/10 10:23:49;;;;;;;4.72;0.70;;;22.10;64.30;;;;;;5031707;28;20041;-61
2022/07/10 10:26:15;;;;;;;5.70;1.00;;;22.20;64.40;;;;;;5032022;28;20049;-61
2022/07/10 10:28:40;;;;;;;5.00;0.60;;;22.20;64.40;;;;;;5030356;28;20053;-61
2022/07/10 10:31:06;;;;;;;2.70;0.98;;;22.20;64.40;;;;;;5031884;28;20147;-62
2022/07/10 10:33:31;;;;;;;2.08;0.50;;;22.20;64.40;;;;;;5031426;28;20103;-62
2022/07/10 10:35:57;;;;;;;3.38;0.82;;;22.20;64.40;;;;;;5031046;28;20057;-62
2022/07/10 10:38:23;;;;;;;12.35;0.77;;;22.20;64.30;;;;;;5032551;28;20042;-58
2022/07/10 10:40:49;;;;;;;4.78;1.02;;;22.20;64.30;;;;;;5031491;28;20041;-59
2022/07/10 10:43:23;;;;;;;6.45;1.48;;;22.20;64.20;;;;;;5032039;28;20120;-60
2022/07/10 10:45:52;;;;;;;2.75;0.60;;;22.20;64.20;;;;;;5032467;28;20046;-60
2022/07/10 10:48:20;;;;;;;2.80;0.60;;;22.20;64.20;;;;;;5032704;28;20572;-60
2022/07/10 10:50:49;;;;;;;5.72;0.60;;;22.20;64.40;;;;;;5031300;28;20124;-60
2022/07/10 10:53:17;;;;;;;4.47;0.65;;;22.20;64.40;;;;;;5032790;28;20046;-60
2022/07/10 10:56:04;;;;;;;2.50;0.53;;;22.20;64.50;;;;;;5032623;28;20049;-60
2022/07/10 10:58:37;;;;;;;4.35;0.65;;;22.20;64.60;;;;;;5032690;28;20312;-61
2022/07/10 11:01:24;;;;;;;4.88;0.70;;;22.20;64.60;;;;;;5032050;28;20037;-60
2022/07/10 11:04:04;;;;;;;2.15;0.50;;;22.20;64.50;;;;;;5031130;28;20115;-61
2022/07/10 11:06:44;;;;;;;3.20;0.73;;;22.20;64.60;;;;;;5032720;28;20060;-60
2022/07/10 11:09:30;;;;;;;3.70;0.60;;;22.20;64.50;;;;;;5030214;28;20045;-60
2022/07/10 11:12:03;;;;;;;2.75;0.50;;;22.20;64.50;;;;;;5031600;28;20151;-61
2022/07/10 11:14:29;;;;;;;2.80;0.70;;;22.20;64.70;;;;;;5032529;28;20041;-61
2022/07/10 11:16:55;;;;;;;4.45;0.60;;;22.20;65.30;;;;;;5031896;28;20060;-61
2022/07/10 11:19:25;;;;;;;2.95;0.60;;;22.20;64.80;;;;;;5031472;28;20041;-60
2022/07/10 11:22:16;;;;;;;4.88;0.80;;;22.30;64.90;;;;;;5032246;28;20041;-60
2022/07/10 11:25:03;;;;;;;2.00;0.50;;;22.30;64.90;;;;;;5030192;28;20046;-61
2022/07/10 11:27:35;;;;;;;3.92;0.43;;;22.30;64.90;;;;;;5032254;28;20062;-60
2022/07/10 11:30:00;;;;;;;3.55;0.60;;;22.30;64.90;;;;;;5032108;28;20071;-61
2022/07/10 11:32:27;;;;;;;3.40;0.50;;;22.30;64.80;;;;;;5031585;28;20139;-61
2022/07/10 11:34:52;;;;;;;3.65;0.60;;;22.30;64.90;;;;;;5031964;28;20045;-61
2022/07/10 11:37:18;;;;;;;1.27;0.40;;;22.30;64.90;;;;;;5031026;28;20196;-61
2022/07/10 11:39:44;;;;;;;2.03;0.57;;;22.40;64.90;;;;;;5031057;28;20512;-61
2022/07/10 11:42:09;;;;;;;1.83;0.40;;;22.40;65.00;;;;;;5031728;28;20453;-63
2022/07/10 11:44:35;;;;;;;1.20;0.45;;;22.40;65.00;;;;;;5030344;28;20041;-60
2022/07/10 11:47:02;;;;;;;2.58;0.40;;;22.30;65.00;;;;;;5030899;28;20049;-61
2022/07/10 11:49:28;;;;;;;3.10;0.60;;;22.30;65.00;;;;;;5030579;28;20120;-62
2022/07/10 11:51:54;;;;;;;5.43;0.60;;;22.30;65.00;;;;;;5032010;28;20136;-61
2022/07/10 11:54:20;;;;;;;2.60;0.47;;;22.30;65.10;;;;;;5030171;28;20046;-60
2022/07/10 11:56:52;;;;;;;1.48;0.40;;;22.30;65.00;;;;;;5031728;28;20034;-60
2022/07/10 11:59:19;;;;;;;2.22;0.40;;;22.30;65.10;;;;;;5030237;28;20045;-58
2022/07/10 12:01:48;;;;;;;1.55;0.50;;;22.30;65.10;;;;;;5032814;28;20091;-59
2022/07/10 12:04:15;;;;;;;1.83;0.50;;;22.30;65.10;;;;;;5035764;28;20041;-60
2022/07/10 12:06:46;;;;;;;2.88;0.60;;;22.30;65.10;;;;;;5034938;28;20049;-60
2022/07/10 12:09:16;;;;;;;1.88;0.70;;;22.30;65.10;;;;;;5035630;28;20377;-59
2022/07/10 12:11:42;;;;;;;3.95;0.68;;;22.30;65.10;;;;;;5035332;28;20049;-62
2022/07/10 12:14:20;;;;;;;3.08;0.40;;;22.30;65.10;;;;;;5034166;28;20029;-61
2022/07/10 12:16:46;;;;;;;6.50;0.85;;;22.30;65.00;;;;;;5035358;28;20068;-63
2022/07/10 12:19:14;;;;;;;4.45;0.60;;;22.30;65.10;;;;;;5035299;28;20041;-62
2022/07/10 12:21:41;;;;;;;2.55;0.70;;;22.30;65.20;;;;;;5034387;28;20099;-60
2022/07/10 12:24:07;;;;;;;4.18;0.60;;;22.30;65.30;;;;;;5034097;28;20374;-61
2022/07/10 12:26:37;;;;;;;4.30;1.15;;;22.30;65.40;;;;;;5035427;28;20600;-61
2022/07/10 12:29:02;;;;;;;3.47;0.70;;;22.40;65.60;;;;;;5033875;28;20567;-62
2022/07/10 12:31:31;;;;;;;5.78;0.75;;;22.40;65.70;;;;;;5035268;28;20037;-62
2022/07/10 12:34:01;;;;;;;3.90;0.73;;;22.40;65.90;;;;;;5034903;28;20124;-61
2022/07/10 12:36:26;;;;;;;8.10;1.35;;;22.50;66.20;;;;;;5034248;28;20485;-62
2022/07/10 12:38:58;;;;;;;5.15;0.80;;;22.40;66.20;;;;;;5034895;28;20049;-62
2022/07/10 12:41:25;;;;;;;6.55;0.80;;;22.50;66.40;;;;;;5034735;28;20085;-62
2022/07/10 12:43:51;;;;;;;3.88;0.70;;;22.50;66.50;;;;;;5032989;28;20481;-62
2022/07/10 12:46:23;;;;;;;6.28;1.23;;;22.50;66.50;;;;;;5035119;28;20120;-61
2022/07/10 12:49:07;;;;;;;2.40;0.75;;;22.50;66.70;;;;;;5033711;28;20079;-63
2022/07/10 12:51:34;;;;;;;5.88;0.65;;;22.50;66.70;;;;;;5035072;28;20057;-62
2022/07/10 12:54:00;;;;;;;6.80;0.82;;;22.50;66.70;;;;;;5031983;28;20068;-62
2022/07/10 12:56:36;;;;;;;5.30;0.60;;;22.50;66.70;;;;;;5032978;28;20469;-60
2022/07/10 12:59:13;;;;;;;4.00;0.70;;;22.50;66.80;;;;;;5034257;28;20121;-60